createdAt,value
2022-10-13T00:00:56.307Z,1014.82
2022-10-13T00:01:56.160Z,1014.78
2022-10-13T00:02:56.086Z,1014.79
2022-10-13T00:03:56.130Z,1014.83
2022-10-13T00:04:56.089Z,1014.75
2022-10-13T00:05:56.024Z,1014.70
2022-10-13T00:06:56.097Z,1014.72
2022-10-13T00:07:56.060Z,1014.72
2022-10-13T00:08:56.024Z,1014.67
2022-10-13T00:09:56.000Z,1014.72
2022-10-13T00:10:56.876Z,1014.73
2022-10-13T00:11:56.066Z,1014.73
2022-10-13T00:12:55.966Z,1014.74
2022-10-13T00:13:56.286Z,1014.72
2022-10-13T00:14:55.926Z,1014.72
2022-10-13T00:15:56.302Z,1014.68
2022-10-13T00:16:55.898Z,1014.68
2022-10-13T00:17:55.909Z,1014.71
2022-10-13T00:18:55.900Z,1014.69
2022-10-13T00:19:55.909Z,1014.67
2022-10-13T00:20:55.860Z,1014.69
2022-10-13T00:21:55.837Z,1014.68
2022-10-13T00:22:55.929Z,1014.65
2022-10-13T00:23:55.869Z,1014.68
2022-10-13T00:24:56.202Z,1014.68
2022-10-13T00:25:55.806Z,1014.64
2022-10-13T00:26:55.797Z,1014.58
2022-10-13T00:27:56.350Z,1014.60
2022-10-13T00:28:56.038Z,1014.60
2022-10-13T00:29:55.738Z,1014.59
2022-10-13T00:30:55.906Z,1014.57
2022-10-13T00:31:55.828Z,1014.58
2022-10-13T00:32:56.039Z,1014.56
2022-10-13T00:33:56.720Z,1014.56
2022-10-13T00:34:55.707Z,1014.57
2022-10-13T00:35:56.540Z,1014.51
2022-10-13T00:36:55.688Z,1014.54
2022-10-13T00:37:55.660Z,1014.55
2022-10-13T00:38:55.619Z,1014.50
2022-10-13T00:39:55.601Z,1014.52
2022-10-13T00:40:55.693Z,1014.47
2022-10-13T00:41:55.602Z,1014.48
2022-10-13T00:42:55.610Z,1014.51
2022-10-13T00:43:55.569Z,1014.46
2022-10-13T00:44:55.568Z,1014.47
2022-10-13T00:45:55.560Z,1014.43
2022-10-13T00:46:55.524Z,1014.45
2022-10-13T00:47:55.509Z,1014.44
2022-10-13T00:48:56.301Z,1014.46
2022-10-13T00:49:55.693Z,1014.42
2022-10-13T00:50:55.501Z,1014.46
2022-10-13T00:51:55.454Z,1014.42
2022-10-13T00:52:55.442Z,1014.41
2022-10-13T00:53:56.233Z,1014.41
2022-10-13T00:54:55.625Z,1014.41
2022-10-13T00:55:55.384Z,1014.42
2022-10-13T00:56:55.396Z,1014.42
2022-10-13T00:57:55.362Z,1014.45
2022-10-13T00:58:55.345Z,1014.47
2022-10-13T00:59:55.333Z,1014.47
2022-10-13T01:00:55.362Z,1014.43
2022-10-13T01:01:56.086Z,1014.54
2022-10-13T01:02:55.371Z,1014.48
2022-10-13T01:03:55.296Z,1014.56
2022-10-13T01:04:55.288Z,1014.55
2022-10-13T01:05:55.256Z,1014.54
2022-10-13T01:06:55.340Z,1014.55
2022-10-13T01:07:55.236Z,1014.53
2022-10-13T01:08:55.264Z,1014.52
2022-10-13T01:09:55.217Z,1014.50
2022-10-13T01:10:55.238Z,1014.51
2022-10-13T01:11:55.217Z,1014.52
2022-10-13T01:12:55.177Z,1014.47
2022-10-13T01:13:55.148Z,1014.48
2022-10-13T01:14:55.188Z,1014.46
2022-10-13T01:15:55.180Z,1014.46
2022-10-13T01:16:55.135Z,1014.47
2022-10-13T01:17:55.208Z,1014.48
2022-10-13T01:18:55.163Z,1014.48
2022-10-13T01:19:55.112Z,1014.45
2022-10-13T01:20:55.076Z,1014.45
2022-10-13T01:21:55.728Z,1014.43
2022-10-13T01:22:55.156Z,1014.42
2022-10-13T01:23:55.037Z,1014.36
2022-10-13T01:24:55.075Z,1014.35
2022-10-13T01:25:55.031Z,1014.33
2022-10-13T01:26:55.055Z,1014.39
2022-10-13T01:27:55.016Z,1014.34
2022-10-13T01:28:56.048Z,1014.34
2022-10-13T01:29:54.997Z,1014.30
2022-10-13T01:30:54.990Z,1014.32
2022-10-13T01:31:54.990Z,1014.28
2022-10-13T01:32:54.995Z,1014.29
2022-10-13T01:33:54.886Z,1014.31
2022-10-13T01:34:54.921Z,1014.29
2022-10-13T01:35:54.913Z,1014.27
2022-10-13T01:36:54.929Z,1014.23
2022-10-13T01:37:54.910Z,1014.24
2022-10-13T01:38:54.869Z,1014.27
2022-10-13T01:39:54.889Z,1014.26
2022-10-13T01:40:55.917Z,1014.28
2022-10-13T01:41:54.781Z,1014.26
2022-10-13T01:42:55.745Z,1014.27
2022-10-13T01:43:55.619Z,1014.24
2022-10-13T01:44:55.177Z,1014.21
2022-10-13T01:45:54.771Z,1014.25
2022-10-13T01:46:54.718Z,1014.18
2022-10-13T01:47:54.746Z,1014.17
2022-10-13T01:48:54.736Z,1014.11
2022-10-13T01:49:54.726Z,1014.11
2022-10-13T01:50:54.710Z,1014.12
2022-10-13T01:51:55.750Z,1014.09
2022-10-13T01:52:55.786Z,1014.11
2022-10-13T01:53:54.802Z,1014.08
2022-10-13T01:54:54.651Z,1014.09
2022-10-13T01:55:54.682Z,1014.04
2022-10-13T01:56:55.409Z,1014.05
2022-10-13T01:57:54.591Z,1014.08
2022-10-13T01:58:54.581Z,1014.03
2022-10-13T01:59:55.295Z,1014.01
2022-10-13T02:00:54.631Z,1014.06
2022-10-13T02:01:54.702Z,1014.01
2022-10-13T02:02:54.602Z,1014.00
2022-10-13T02:03:54.523Z,1014.07
2022-10-13T02:04:55.661Z,1014.04
2022-10-13T02:05:55.571Z,1014.02
2022-10-13T02:06:54.465Z,1014.02
2022-10-13T02:07:54.471Z,1014.02
2022-10-13T02:08:55.283Z,1014.03
2022-10-13T02:09:54.592Z,1014.04
2022-10-13T02:10:54.524Z,1014.02
2022-10-13T02:11:54.429Z,1014.00
2022-10-13T02:12:54.392Z,1013.99
2022-10-13T02:13:54.446Z,1014.00
2022-10-13T02:14:54.407Z,1014.00
2022-10-13T02:15:54.439Z,1013.94
2022-10-13T02:16:54.383Z,1013.95
2022-10-13T02:17:54.346Z,1013.89
2022-10-13T02:18:54.402Z,1013.85
2022-10-13T02:19:54.414Z,1013.89
2022-10-13T02:20:54.285Z,1013.85
2022-10-13T02:21:54.654Z,1013.85
2022-10-13T02:22:54.274Z,1013.80
2022-10-13T02:23:54.314Z,1013.84
2022-10-13T02:24:54.366Z,1013.82
2022-10-13T02:25:54.294Z,1013.79
2022-10-13T02:26:54.206Z,1013.81
2022-10-13T02:27:54.255Z,1013.79
2022-10-13T02:28:54.191Z,1013.77
2022-10-13T02:29:54.257Z,1013.74
2022-10-13T02:30:54.223Z,1013.75
2022-10-13T02:31:54.276Z,1013.70
2022-10-13T02:32:54.167Z,1013.75
2022-10-13T02:33:54.151Z,1013.70
2022-10-13T02:34:54.127Z,1013.69
2022-10-13T02:35:54.154Z,1013.64
2022-10-13T02:36:54.078Z,1013.64
2022-10-13T02:37:54.107Z,1013.69
2022-10-13T02:38:54.061Z,1013.67
2022-10-13T02:39:54.067Z,1013.66
2022-10-13T02:40:54.046Z,1013.62
2022-10-13T02:41:54.111Z,1013.62
2022-10-13T02:42:54.033Z,1013.62
2022-10-13T02:43:54.926Z,1013.67
2022-10-13T02:44:54.038Z,1013.66
2022-10-13T02:45:53.961Z,1013.65
2022-10-13T02:46:54.181Z,1013.64
2022-10-13T02:47:54.447Z,1013.66
2022-10-13T02:48:53.948Z,1013.60
2022-10-13T02:49:53.976Z,1013.62
2022-10-13T02:50:53.927Z,1013.61
2022-10-13T02:51:53.970Z,1013.59
2022-10-13T02:52:53.872Z,1013.59
2022-10-13T02:53:53.857Z,1013.59
2022-10-13T02:54:53.883Z,1013.56
2022-10-13T02:55:53.829Z,1013.58
2022-10-13T02:56:53.839Z,1013.60
2022-10-13T02:57:53.901Z,1013.63
2022-10-13T02:58:53.830Z,1013.60
2022-10-13T02:59:54.749Z,1013.66
2022-10-13T03:00:55.011Z,1013.58
2022-10-13T03:01:53.789Z,1013.62
2022-10-13T03:02:53.788Z,1013.57
2022-10-13T03:03:53.789Z,1013.62
2022-10-13T03:04:53.708Z,1013.64
2022-10-13T03:05:53.750Z,1013.67
2022-10-13T03:06:53.689Z,1013.63
2022-10-13T03:07:53.710Z,1013.63
2022-10-13T03:08:54.629Z,1013.62
2022-10-13T03:09:53.698Z,1013.65
2022-10-13T03:10:53.654Z,1013.64
2022-10-13T03:11:53.742Z,1013.61
2022-10-13T03:12:54.772Z,1013.62
2022-10-13T03:13:54.671Z,1013.63
2022-10-13T03:14:53.603Z,1013.63
2022-10-13T03:15:53.561Z,1013.58
2022-10-13T03:16:53.599Z,1013.61
2022-10-13T03:17:54.806Z,1013.60
2022-10-13T03:18:53.692Z,1013.61
2022-10-13T03:19:53.613Z,1013.58
2022-10-13T03:20:54.513Z,1013.58
2022-10-13T03:21:53.538Z,1013.59
2022-10-13T03:22:53.633Z,1013.63
2022-10-13T03:23:53.496Z,1013.57
2022-10-13T03:24:53.503Z,1013.61
2022-10-13T03:25:54.035Z,1013.55
2022-10-13T03:26:54.441Z,1013.59
2022-10-13T03:27:53.632Z,1013.54
2022-10-13T03:28:53.517Z,1013.55
2022-10-13T03:29:53.413Z,1013.56
2022-10-13T03:30:53.431Z,1013.55
2022-10-13T03:31:53.443Z,1013.55
2022-10-13T03:32:53.751Z,1013.53
2022-10-13T03:33:53.370Z,1013.52
2022-10-13T03:34:54.316Z,1013.57
2022-10-13T03:35:53.357Z,1013.55
2022-10-13T03:36:53.336Z,1013.58
2022-10-13T03:37:53.338Z,1013.56
2022-10-13T03:38:53.505Z,1013.55
2022-10-13T03:39:53.264Z,1013.60
2022-10-13T03:40:53.247Z,1013.57
2022-10-13T03:41:54.711Z,1013.58
2022-10-13T03:42:54.047Z,1013.58
2022-10-13T03:43:53.249Z,1013.57
2022-10-13T03:44:56.321Z,1013.53
2022-10-13T03:45:53.255Z,1013.56
2022-10-13T03:46:54.069Z,1013.59
2022-10-13T03:47:53.194Z,1013.58
2022-10-13T03:48:53.179Z,1013.56
2022-10-13T03:49:53.154Z,1013.58
2022-10-13T03:50:54.184Z,1013.52
2022-10-13T03:51:54.096Z,1013.54
2022-10-13T03:52:53.161Z,1013.56
2022-10-13T03:53:53.905Z,1013.54
2022-10-13T03:54:53.392Z,1013.54
2022-10-13T03:55:53.099Z,1013.56
2022-10-13T03:56:53.380Z,1013.55
2022-10-13T03:57:53.087Z,1013.58
2022-10-13T03:58:53.038Z,1013.55
2022-10-13T03:59:53.890Z,1013.59
2022-10-13T04:00:53.398Z,1013.57
2022-10-13T04:01:53.161Z,1013.52
2022-10-13T04:02:54.065Z,1013.57
2022-10-13T04:03:52.975Z,1013.52
2022-10-13T04:04:53.232Z,1013.49
2022-10-13T04:05:52.967Z,1013.52
2022-10-13T04:06:52.928Z,1013.52
2022-10-13T04:07:52.915Z,1013.54
2022-10-13T04:08:52.896Z,1013.51
2022-10-13T04:09:53.899Z,1013.48
2022-10-13T04:10:52.868Z,1013.51
2022-10-13T04:11:53.379Z,1013.50
2022-10-13T04:12:54.130Z,1013.49
2022-10-13T04:13:53.256Z,1013.46
2022-10-13T04:14:52.833Z,1013.44
2022-10-13T04:15:52.809Z,1013.44
2022-10-13T04:16:54.222Z,1013.45
2022-10-13T04:17:53.651Z,1013.45
2022-10-13T04:18:53.208Z,1013.46
2022-10-13T04:19:53.161Z,1013.49
2022-10-13T04:20:52.766Z,1013.45
2022-10-13T04:21:52.781Z,1013.48
2022-10-13T04:22:52.732Z,1013.48
2022-10-13T04:23:52.722Z,1013.50
2022-10-13T04:24:52.733Z,1013.48
2022-10-13T04:25:53.006Z,1013.44
2022-10-13T04:26:52.743Z,1013.49
2022-10-13T04:27:52.800Z,1013.48
2022-10-13T04:28:52.717Z,1013.51
2022-10-13T04:29:52.627Z,1013.52
2022-10-13T04:30:52.631Z,1013.53
2022-10-13T04:31:52.662Z,1013.55
2022-10-13T04:32:52.579Z,1013.57
2022-10-13T04:33:52.608Z,1013.56
2022-10-13T04:34:52.573Z,1013.54
2022-10-13T04:35:52.565Z,1013.49
2022-10-13T04:36:52.736Z,1013.49
2022-10-13T04:37:53.796Z,1013.45
2022-10-13T04:38:52.693Z,1013.41
2022-10-13T04:39:52.530Z,1013.41
2022-10-13T04:40:52.485Z,1013.41
2022-10-13T04:41:53.413Z,1013.43
2022-10-13T04:42:52.460Z,1013.40
2022-10-13T04:43:52.665Z,1013.40
2022-10-13T04:44:52.463Z,1013.35
2022-10-13T04:45:52.447Z,1013.40
2022-10-13T04:46:52.464Z,1013.41
2022-10-13T04:47:52.392Z,1013.41
2022-10-13T04:48:52.457Z,1013.44
2022-10-13T04:49:52.385Z,1013.42
2022-10-13T04:50:53.555Z,1013.41
2022-10-13T04:51:52.368Z,1013.42
2022-10-13T04:52:52.357Z,1013.41
2022-10-13T04:53:52.297Z,1013.37
2022-10-13T04:54:52.367Z,1013.39
2022-10-13T04:55:52.298Z,1013.34
2022-10-13T04:56:52.362Z,1013.39
2022-10-13T04:57:52.309Z,1013.36
2022-10-13T04:58:52.228Z,1013.39
2022-10-13T04:59:52.217Z,1013.39
2022-10-13T05:00:52.287Z,1013.41
2022-10-13T05:01:52.217Z,1013.37
2022-10-13T05:02:52.238Z,1013.36
2022-10-13T05:03:52.403Z,1013.37
2022-10-13T05:04:52.230Z,1013.29
2022-10-13T05:05:52.149Z,1013.34
2022-10-13T05:07:16.595Z,1013.34
2022-10-13T05:07:53.490Z,1013.33
2022-10-13T05:08:52.154Z,1013.27
2022-10-13T05:09:53.262Z,1013.27
2022-10-13T05:10:52.288Z,1013.27
2022-10-13T05:11:52.119Z,1013.27
2022-10-13T05:12:52.080Z,1013.23
2022-10-13T05:13:52.032Z,1013.23
2022-10-13T05:14:52.032Z,1013.21
2022-10-13T05:15:52.082Z,1013.16
2022-10-13T05:16:52.113Z,1013.16
2022-10-13T05:17:53.003Z,1013.27
2022-10-13T05:18:51.992Z,1013.22
2022-10-13T05:19:52.070Z,1013.21
2022-10-13T05:20:52.105Z,1013.23
2022-10-13T05:21:51.949Z,1013.22
2022-10-13T05:22:51.977Z,1013.21
2022-10-13T05:23:51.929Z,1013.20
2022-10-13T05:24:51.929Z,1013.23
2022-10-13T05:25:51.930Z,1013.23
2022-10-13T05:26:51.955Z,1013.23
2022-10-13T05:27:51.934Z,1013.23
2022-10-13T05:28:51.948Z,1013.25
2022-10-13T05:29:51.971Z,1013.25
2022-10-13T05:30:51.835Z,1013.26
2022-10-13T05:31:51.832Z,1013.26
2022-10-13T05:32:53.943Z,1013.21
2022-10-13T05:33:51.807Z,1013.23
2022-10-13T05:34:51.802Z,1013.21
2022-10-13T05:35:51.788Z,1013.20
2022-10-13T05:36:51.753Z,1013.18
2022-10-13T05:37:51.752Z,1013.18
2022-10-13T05:38:51.721Z,1013.17
2022-10-13T05:39:51.732Z,1013.17
2022-10-13T05:40:51.706Z,1013.18
2022-10-13T05:41:52.176Z,1013.10
2022-10-13T05:42:51.735Z,1013.14
2022-10-13T05:43:51.674Z,1013.15
2022-10-13T05:44:51.719Z,1013.14
2022-10-13T05:45:51.956Z,1013.16
2022-10-13T05:46:51.633Z,1013.14
2022-10-13T05:47:51.653Z,1013.15
2022-10-13T05:48:51.598Z,1013.17
2022-10-13T05:49:51.715Z,1013.12
2022-10-13T05:50:51.565Z,1013.14
2022-10-13T05:51:51.574Z,1013.14
2022-10-13T05:52:51.535Z,1013.16
2022-10-13T05:53:56.837Z,1013.13
2022-10-13T05:54:52.687Z,1013.13
2022-10-13T05:55:51.532Z,1013.14
2022-10-13T05:56:51.586Z,1013.17
2022-10-13T05:57:52.241Z,1013.14
2022-10-13T05:58:52.480Z,1013.17
2022-10-13T05:59:51.505Z,1013.14
2022-10-13T06:00:51.445Z,1013.05
2022-10-13T06:01:51.555Z,1013.08
2022-10-13T06:02:51.401Z,1013.08
2022-10-13T06:03:51.416Z,1013.05
2022-10-13T06:04:51.428Z,1013.07
2022-10-13T06:05:51.360Z,1013.00
2022-10-13T06:06:52.297Z,1012.97
2022-10-13T06:07:51.411Z,1012.96
2022-10-13T06:08:51.424Z,1012.95
2022-10-13T06:09:51.336Z,1013.02
2022-10-13T06:10:51.388Z,1013.04
2022-10-13T06:11:51.320Z,1013.02
2022-10-13T06:12:51.279Z,1012.99
2022-10-13T06:13:51.288Z,1013.02
2022-10-13T06:14:51.249Z,1013.00
2022-10-13T06:15:51.269Z,1013.02
2022-10-13T06:16:52.461Z,1013.01
2022-10-13T06:17:51.261Z,1012.98
2022-10-13T06:18:51.222Z,1012.97
2022-10-13T06:19:51.458Z,1012.90
2022-10-13T06:20:51.201Z,1012.93
2022-10-13T06:21:51.239Z,1012.92
2022-10-13T06:22:51.130Z,1012.94
2022-10-13T06:23:52.305Z,1012.93
2022-10-13T06:24:52.209Z,1012.94
2022-10-13T06:25:51.245Z,1012.93
2022-10-13T06:26:51.464Z,1012.88
2022-10-13T06:27:51.102Z,1012.85
2022-10-13T06:28:56.918Z,1012.84
2022-10-13T06:29:53.265Z,1012.88
2022-10-13T06:30:51.244Z,1012.85
2022-10-13T06:31:51.176Z,1012.84
2022-10-13T06:32:51.003Z,1012.84
2022-10-13T06:33:51.851Z,1012.83
2022-10-13T06:34:51.000Z,1012.80
2022-10-13T06:35:51.205Z,1012.78
2022-10-13T06:36:51.210Z,1012.78
2022-10-13T06:37:50.982Z,1012.83
2022-10-13T06:38:51.893Z,1012.83
2022-10-13T06:39:50.924Z,1012.82
2022-10-13T06:40:51.701Z,1012.84
2022-10-13T06:41:50.923Z,1012.81
2022-10-13T06:42:50.972Z,1012.86
2022-10-13T06:43:50.876Z,1012.88
2022-10-13T06:44:51.833Z,1012.90
2022-10-13T06:45:50.945Z,1012.91
2022-10-13T06:46:51.637Z,1012.91
2022-10-13T06:47:50.883Z,1012.93
2022-10-13T06:48:50.834Z,1012.95
2022-10-13T06:49:50.926Z,1012.96
2022-10-13T06:50:51.565Z,1012.96
2022-10-13T06:51:50.818Z,1012.99
2022-10-13T06:52:51.696Z,1012.99
2022-10-13T06:53:50.952Z,1012.97
2022-10-13T06:54:50.967Z,1013.01
2022-10-13T06:55:52.581Z,1013.02
2022-10-13T06:56:50.730Z,1013.03
2022-10-13T06:57:51.666Z,1013.01
2022-10-13T06:58:51.635Z,1013.01
2022-10-13T06:59:51.549Z,1013.05
2022-10-13T07:00:51.030Z,1013.02
2022-10-13T07:01:50.666Z,1013.04
2022-10-13T07:02:51.630Z,1013.06
2022-10-13T07:03:50.618Z,1013.05
2022-10-13T07:04:50.826Z,1013.04
2022-10-13T07:05:50.617Z,1012.99
2022-10-13T07:06:50.588Z,1013.00
2022-10-13T07:07:50.544Z,1013.01
2022-10-13T07:08:50.588Z,1012.99
2022-10-13T07:09:50.612Z,1013.02
2022-10-13T07:10:51.376Z,1013.01
2022-10-13T07:11:50.690Z,1013.01
2022-10-13T07:12:50.507Z,1012.98
2022-10-13T07:13:50.494Z,1012.99
2022-10-13T07:14:51.502Z,1012.97
2022-10-13T07:15:50.576Z,1012.99
2022-10-13T07:16:50.502Z,1012.98
2022-10-13T07:17:50.425Z,1013.00
2022-10-13T07:18:50.391Z,1013.00
2022-10-13T07:19:50.414Z,1013.01
2022-10-13T07:20:50.443Z,1013.01
2022-10-13T07:21:50.378Z,1012.93
2022-10-13T07:22:50.391Z,1012.91
2022-10-13T07:23:50.361Z,1012.90
2022-10-13T07:24:50.394Z,1012.90
2022-10-13T07:25:50.342Z,1012.92
2022-10-13T07:26:50.392Z,1012.94
2022-10-13T07:27:50.391Z,1012.97
2022-10-13T07:28:50.339Z,1012.92
2022-10-13T07:29:50.262Z,1012.91
2022-10-13T07:30:50.274Z,1012.88
2022-10-13T07:31:50.234Z,1012.83
2022-10-13T07:32:50.247Z,1012.88
2022-10-13T07:33:50.230Z,1012.92
2022-10-13T07:34:50.203Z,1012.88
2022-10-13T07:35:50.166Z,1012.83
2022-10-13T07:36:50.202Z,1012.86
2022-10-13T07:37:50.142Z,1012.87
2022-10-13T07:38:50.157Z,1012.91
2022-10-13T07:39:50.138Z,1012.95
2022-10-13T07:40:50.434Z,1012.92
2022-10-13T07:41:51.308Z,1012.84
2022-10-13T07:42:50.204Z,1012.86
2022-10-13T07:43:50.072Z,1012.79
2022-10-13T07:44:50.063Z,1012.85
2022-10-13T07:45:50.084Z,1012.82
2022-10-13T07:46:50.075Z,1012.87
2022-10-13T07:47:50.020Z,1012.90
2022-10-13T07:48:50.440Z,1012.93
2022-10-13T07:49:50.059Z,1012.88
2022-10-13T07:50:50.056Z,1012.91
2022-10-13T07:51:50.049Z,1012.96
2022-10-13T07:52:49.944Z,1012.95
2022-10-13T07:53:49.939Z,1012.90
2022-10-13T07:54:49.940Z,1012.82
2022-10-13T07:55:49.960Z,1012.76
2022-10-13T07:56:49.926Z,1012.81
2022-10-13T07:57:49.899Z,1012.82
2022-10-13T07:58:49.890Z,1012.85
2022-10-13T07:59:49.882Z,1012.90
2022-10-13T08:00:49.880Z,1012.91
2022-10-13T08:01:49.922Z,1012.94
2022-10-13T08:02:49.848Z,1012.97
2022-10-13T08:03:50.708Z,1012.95
2022-10-13T08:04:49.850Z,1013.00
2022-10-13T08:05:49.779Z,1012.96
2022-10-13T08:06:50.690Z,1012.96
2022-10-13T08:07:52.375Z,1013.01
2022-10-13T08:08:50.779Z,1013.00
2022-10-13T08:09:49.733Z,1012.96
2022-10-13T08:10:49.759Z,1012.98
2022-10-13T08:11:49.716Z,1012.97
2022-10-13T08:12:49.722Z,1012.93
2022-10-13T08:13:49.770Z,1012.83
2022-10-13T08:15:49.742Z,1012.80
2022-10-13T08:16:52.876Z,1012.83
2022-10-13T08:17:49.612Z,1012.80
2022-10-13T08:18:49.671Z,1012.79
2022-10-13T08:19:49.601Z,1012.79
2022-10-13T08:20:49.616Z,1012.77
2022-10-13T08:21:58.686Z,1012.79
2022-10-13T08:22:50.594Z,1012.74
2022-10-13T08:23:49.545Z,1012.76
2022-10-13T08:24:49.570Z,1012.75
2022-10-13T08:25:49.515Z,1012.72
2022-10-13T08:26:50.124Z,1012.69
2022-10-13T08:27:51.960Z,1012.69
2022-10-13T08:29:09.655Z,1012.68
2022-10-13T08:29:50.477Z,1012.70
2022-10-13T08:30:49.540Z,1012.68
2022-10-13T08:32:49.481Z,1012.72
2022-10-13T08:33:49.437Z,1012.72
2022-10-13T08:34:49.437Z,1012.72
2022-10-13T08:35:49.429Z,1012.70
2022-10-13T08:36:49.418Z,1012.71
2022-10-13T08:37:49.407Z,1012.72
2022-10-13T08:38:49.456Z,1012.72
2022-10-13T08:39:49.366Z,1012.70
2022-10-13T08:40:49.321Z,1012.71
2022-10-13T08:41:49.295Z,1012.73
2022-10-13T08:42:49.317Z,1012.70
2022-10-13T08:44:33.670Z,1012.66
2022-10-13T08:45:16.035Z,1012.72
2022-10-13T08:45:50.248Z,1012.73
2022-10-13T08:46:49.259Z,1012.75
2022-10-13T08:47:49.222Z,1012.73
2022-10-13T08:48:49.244Z,1012.74
2022-10-13T08:49:49.250Z,1012.74
2022-10-13T08:50:49.248Z,1012.70
2022-10-13T08:51:49.214Z,1012.64
2022-10-13T08:52:49.151Z,1012.58
2022-10-13T08:53:49.180Z,1012.61
2022-10-13T08:54:49.153Z,1012.59
2022-10-13T08:55:49.141Z,1012.58
2022-10-13T08:56:49.182Z,1012.56
2022-10-13T08:57:49.221Z,1012.51
2022-10-13T08:58:49.114Z,1012.47
2022-10-13T08:59:49.075Z,1012.50
2022-10-13T09:00:49.093Z,1012.55
2022-10-13T09:01:49.133Z,1012.58
2022-10-13T09:02:49.033Z,1012.57
2022-10-13T09:03:49.041Z,1012.52
2022-10-13T09:04:49.013Z,1012.48
2022-10-13T09:05:48.998Z,1012.53
2022-10-13T09:06:48.984Z,1012.53
2022-10-13T09:07:49.014Z,1012.50
2022-10-13T09:08:48.976Z,1012.53
2022-10-13T09:09:48.961Z,1012.50
2022-10-13T09:10:49.426Z,1012.42
2022-10-13T09:11:48.918Z,1012.43
2022-10-13T09:12:48.886Z,1012.38
2022-10-13T09:13:48.869Z,1012.42
2022-10-13T09:14:48.856Z,1012.42
2022-10-13T09:15:48.868Z,1012.41
2022-10-13T09:16:49.302Z,1012.47
2022-10-13T09:17:48.929Z,1012.46
2022-10-13T09:18:48.885Z,1012.44
2022-10-13T09:19:48.839Z,1012.45
2022-10-13T09:20:48.841Z,1012.47
2022-10-13T09:21:48.778Z,1012.44
2022-10-13T09:22:48.776Z,1012.45
2022-10-13T09:23:48.782Z,1012.46
2022-10-13T09:24:48.799Z,1012.43
2022-10-13T09:25:48.821Z,1012.40
2022-10-13T09:26:50.000Z,1012.39
2022-10-13T09:27:48.708Z,1012.45
2022-10-13T09:28:48.847Z,1012.44
2022-10-13T09:29:48.739Z,1012.42
2022-10-13T09:30:49.273Z,1012.39
2022-10-13T09:31:48.629Z,1012.47
2022-10-13T09:32:48.670Z,1012.45
2022-10-13T09:33:48.674Z,1012.39
2022-10-13T09:34:48.610Z,1012.44
2022-10-13T09:35:48.650Z,1012.44
2022-10-13T09:36:48.591Z,1012.42
2022-10-13T09:37:48.610Z,1012.50
2022-10-13T09:38:48.584Z,1012.52
2022-10-13T09:39:48.605Z,1012.55
2022-10-13T09:40:48.534Z,1012.55
2022-10-13T09:41:48.556Z,1012.56
2022-10-13T09:42:49.457Z,1012.57
2022-10-13T09:43:48.572Z,1012.62
2022-10-13T09:44:48.495Z,1012.60
2022-10-13T09:45:48.459Z,1012.61
2022-10-13T09:46:49.240Z,1012.58
2022-10-13T09:47:48.594Z,1012.58
2022-10-13T09:48:49.166Z,1012.55
2022-10-13T09:49:48.456Z,1012.49
2022-10-13T09:50:48.457Z,1012.50
2022-10-13T09:51:48.537Z,1012.46
2022-10-13T09:52:48.389Z,1012.51
2022-10-13T09:53:48.388Z,1012.54
2022-10-13T09:54:48.345Z,1012.52
2022-10-13T09:55:49.357Z,1012.60
2022-10-13T09:56:48.379Z,1012.63
2022-10-13T09:57:48.403Z,1012.60
2022-10-13T09:58:48.381Z,1012.51
2022-10-13T09:59:48.398Z,1012.49
2022-10-13T10:00:49.409Z,1012.47
2022-10-13T10:01:48.313Z,1012.43
2022-10-13T10:02:48.261Z,1012.46
2022-10-13T10:03:48.269Z,1012.53
2022-10-13T10:04:48.238Z,1012.58
2022-10-13T10:05:48.237Z,1012.56
2022-10-13T10:06:49.162Z,1012.52
2022-10-13T10:07:48.252Z,1012.52
2022-10-13T10:09:02.610Z,1012.56
2022-10-13T10:09:49.164Z,1012.59
2022-10-13T10:10:48.172Z,1012.53
2022-10-13T10:11:48.156Z,1012.52
2022-10-13T10:12:48.146Z,1012.53
2022-10-13T10:13:48.101Z,1012.53
2022-10-13T10:14:48.105Z,1012.50
2022-10-13T10:15:48.972Z,1012.51
2022-10-13T10:16:49.045Z,1012.50
2022-10-13T10:17:48.184Z,1012.49
2022-10-13T10:18:48.055Z,1012.44
2022-10-13T10:19:48.005Z,1012.43
2022-10-13T10:20:48.036Z,1012.42
2022-10-13T10:21:47.985Z,1012.39
2022-10-13T10:22:47.983Z,1012.37
2022-10-13T10:23:48.015Z,1012.37
2022-10-13T10:24:48.027Z,1012.39
2022-10-13T10:25:47.957Z,1012.40
2022-10-13T10:26:48.948Z,1012.41
2022-10-13T10:27:47.925Z,1012.39
2022-10-13T10:28:47.939Z,1012.44
2022-10-13T10:29:47.920Z,1012.45
2022-10-13T10:30:47.967Z,1012.44
2022-10-13T10:31:47.869Z,1012.45
2022-10-13T10:32:47.938Z,1012.47
2022-10-13T10:33:48.779Z,1012.45
2022-10-13T10:34:47.852Z,1012.53
2022-10-13T10:35:47.829Z,1012.39
2022-10-13T10:36:47.880Z,1012.38
2022-10-13T10:37:47.800Z,1012.41
2022-10-13T10:38:47.811Z,1012.41
2022-10-13T10:39:47.888Z,1012.41
2022-10-13T10:40:47.740Z,1012.34
2022-10-13T10:41:47.738Z,1012.38
2022-10-13T10:42:51.932Z,1012.35
2022-10-13T10:43:47.704Z,1012.35
2022-10-13T10:44:47.772Z,1012.34
2022-10-13T10:45:47.680Z,1012.27
2022-10-13T10:46:47.661Z,1012.25
2022-10-13T10:47:47.733Z,1012.23
2022-10-13T10:48:47.674Z,1012.23
2022-10-13T10:49:47.707Z,1012.20
2022-10-13T10:50:47.607Z,1012.17
2022-10-13T10:51:47.577Z,1012.24
2022-10-13T10:52:47.592Z,1012.18
2022-10-13T10:53:47.578Z,1012.19
2022-10-13T10:54:49.182Z,1012.17
2022-10-13T10:55:47.524Z,1012.20
2022-10-13T10:56:47.598Z,1012.15
2022-10-13T10:57:47.506Z,1012.15
2022-10-13T10:58:47.529Z,1012.12
2022-10-13T10:59:48.961Z,1012.14
2022-10-13T11:00:47.499Z,1012.09
2022-10-13T11:01:47.549Z,1012.06
2022-10-13T11:02:47.436Z,1012.05
2022-10-13T11:03:47.460Z,1012.08
2022-10-13T11:04:47.567Z,1012.12
2022-10-13T11:05:47.462Z,1012.10
2022-10-13T11:06:47.588Z,1012.09
2022-10-13T11:07:47.384Z,1012.07
2022-10-13T11:08:47.368Z,1012.07
2022-10-13T11:09:47.401Z,1012.06
2022-10-13T11:10:47.369Z,1012.02
2022-10-13T11:11:47.389Z,1012.05
2022-10-13T11:12:47.399Z,1011.98
2022-10-13T11:13:47.314Z,1012.02
2022-10-13T11:14:47.279Z,1011.95
2022-10-13T11:15:47.341Z,1011.90
2022-10-13T11:16:47.329Z,1011.92
2022-10-13T11:17:47.255Z,1011.91
2022-10-13T11:18:47.423Z,1011.84
2022-10-13T11:19:47.277Z,1011.86
2022-10-13T11:20:47.295Z,1011.86
2022-10-13T11:21:47.206Z,1011.91
2022-10-13T11:22:47.214Z,1011.89
2022-10-13T11:23:47.183Z,1011.89
2022-10-13T11:24:47.985Z,1011.87
2022-10-13T11:25:47.156Z,1011.88
2022-10-13T11:26:47.271Z,1011.84
2022-10-13T11:27:47.158Z,1011.83
2022-10-13T11:28:47.132Z,1011.76
2022-10-13T11:29:47.413Z,1011.74
2022-10-13T11:30:47.175Z,1011.75
2022-10-13T11:31:47.116Z,1011.70
2022-10-13T11:32:47.049Z,1011.72
2022-10-13T11:33:47.038Z,1011.67
2022-10-13T11:34:47.006Z,1011.64
2022-10-13T11:35:47.962Z,1011.63
2022-10-13T11:36:47.019Z,1011.62
2022-10-13T11:37:55.832Z,1011.68
2022-10-13T11:38:48.021Z,1011.67
2022-10-13T11:39:47.465Z,1011.66
2022-10-13T11:40:46.957Z,1011.62
2022-10-13T11:41:46.982Z,1011.64
2022-10-13T11:42:47.351Z,1011.58
2022-10-13T11:43:46.972Z,1011.56
2022-10-13T11:44:46.892Z,1011.59
2022-10-13T11:45:48.041Z,1011.60
2022-10-13T11:46:46.953Z,1011.61
2022-10-13T11:47:46.862Z,1011.55
2022-10-13T11:48:47.724Z,1011.57
2022-10-13T11:49:47.796Z,1011.58
2022-10-13T11:50:46.836Z,1011.56
2022-10-13T11:51:46.934Z,1011.54
2022-10-13T11:52:46.796Z,1011.55
2022-10-13T11:53:47.580Z,1011.55
2022-10-13T11:54:46.791Z,1011.53
2022-10-13T11:55:46.780Z,1011.50
2022-10-13T11:56:48.691Z,1011.53
2022-10-13T11:57:46.728Z,1011.52
2022-10-13T11:58:46.976Z,1011.57
2022-10-13T11:59:46.844Z,1011.50
2022-10-13T12:00:46.767Z,1011.46
2022-10-13T12:01:46.667Z,1011.44
2022-10-13T12:02:47.773Z,1011.39
2022-10-13T12:03:46.818Z,1011.41
2022-10-13T12:04:47.602Z,1011.38
2022-10-13T12:05:46.714Z,1011.38
2022-10-13T12:06:46.642Z,1011.39
2022-10-13T12:07:46.673Z,1011.37